Time;durP1;ratioP1;P1;durP2;ratioP2;P2;SDS_P1;SDS_P2;PMS_P1;PMS_P2;Temp;Humidity;BMP_temperature;BMP_pressure;BME280_temperature;BME280_humidity;BME280_pressure;Samples;Min_cycle;Max_cycle;Signal;HPM_P1;HPM_P2
2023/10/03 15:27:44;;;;;;;20.73;11.25;;;;;;;;;;1051390;27;20387;-54
2023/10/03 15:28:16;;;;;;;19.98;11.00;;;;;;;;;;1035407;28;20468;-55
2023/10/03 15:28:48;;;;;;;19.00;11.30;;;;;;;;;;1008454;28;20045;-55
2023/10/03 15:29:20;;;;;;;23.90;12.15;;;;;;;;;;1029602;28;20422;-55
2023/10/03 15:29:51;;;;;;;22.10;12.02;;;;;;;;;;990291;28;66240;-55
2023/10/03 15:30:23;;;;;;;18.40;11.45;;;;;;;;;;1034866;28;20050;-55
2023/10/03 15:30:56;;;;;;;21.55;11.65;;;;;;;;;;1034848;28;20054;-56
2023/10/03 15:31:27;;;;;;;20.30;11.38;;;;;;;;;;1035408;28;20057;-55
2023/10/03 15:31:58;;;;;;;22.38;12.38;;;;;;;;;;1035031;28;20054;-55
2023/10/03 15:32:30;;;;;;;20.35;11.93;;;;;;;;;;1035177;28;20050;-55
2023/10/03 15:33:03;;;;;;;19.45;12.23;;;;;;;;;;1035319;28;20432;-55
2023/10/03 15:33:34;;;;;;;20.15;11.80;;;;;;;;;;1035052;28;20054;-55
2023/10/03 15:34:05;;;;;;;18.73;11.27;;;;;;;;;;1034184;28;20169;-55
2023/10/03 15:34:38;;;;;;;17.50;11.20;;;;;;;;;;1035110;28;20065;-56
2023/10/03 15:35:12;;;;;;;16.48;11.45;;;;;;;;;;1034543;28;20058;-54
2023/10/03 15:35:43;;;;;;;17.70;11.40;;;;;;;;;;1034601;28;20043;-55
2023/10/03 15:36:15;;;;;;;20.40;12.20;;;;;;;;;;1034245;28;20077;-55
2023/10/03 15:36:47;;;;;;;16.92;11.18;;;;;;;;;;1034422;28;20074;-55
2023/10/03 15:37:19;;;;;;;17.63;11.57;;;;;;;;;;1035249;28;20053;-56
2023/10/03 15:37:50;;;;;;;20.98;11.65;;;;;;;;;;1035136;28;20073;-55
2023/10/03 15:38:23;;;;;;;18.95;11.73;;;;;;;;;;1035104;28;20104;-56
2023/10/03 15:38:54;;;;;;;18.98;11.38;;;;;;;;;;1033488;28;20057;-55
2023/10/03 15:39:27;;;;;;;21.80;11.48;;;;;;;;;;1034292;28;20057;-55
2023/10/03 15:39:58;;;;;;;19.98;11.35;;;;;;;;;;1032873;28;20184;-56
2023/10/03 15:40:31;;;;;;;18.55;11.50;;;;;;;;;;1035886;28;20133;-55
2023/10/03 15:41:03;;;;;;;20.60;11.25;;;;;;;;;;1036431;28;20100;-55
2023/10/03 15:41:35;;;;;;;20.10;11.75;;;;;;;;;;1031704;28;20108;-55
2023/10/03 15:42:07;;;;;;;17.27;10.75;;;;;;;;;;1033729;28;20048;-55
2023/10/03 15:42:38;;;;;;;19.10;11.60;;;;;;;;;;1035147;28;20046;-55
2023/10/03 15:43:11;;;;;;;20.08;12.32;;;;;;;;;;1035243;28;20402;-55
2023/10/03 15:43:44;;;;;;;18.58;11.88;;;;;;;;;;1035179;28;20065;-55
2023/10/03 15:44:17;;;;;;;23.13;11.85;;;;;;;;;;1035168;28;20104;-56
2023/10/03 15:44:51;;;;;;;16.25;10.88;;;;;;;;;;1035103;28;20447;-55
2023/10/03 15:45:24;;;;;;;16.77;11.48;;;;;;;;;;1035165;28;20086;-55
2023/10/03 15:46:00;;;;;;;17.30;11.25;;;;;;;;;;1035053;28;20056;-56
2023/10/03 15:46:34;;;;;;;21.75;11.73;;;;;;;;;;1034958;28;20054;-56
2023/10/03 15:47:07;;;;;;;20.05;11.75;;;;;;;;;;1035103;28;20050;-56
2023/10/03 15:47:40;;;;;;;18.52;11.60;;;;;;;;;;1034969;28;20054;-55
2023/10/03 15:48:12;;;;;;;18.88;11.40;;;;;;;;;;1035049;28;20057;-55
2023/10/03 15:48:43;;;;;;;19.30;11.80;;;;;;;;;;1034718;28;20042;-55
2023/10/03 15:49:15;;;;;;;20.00;11.60;;;;;;;;;;1035119;28;20046;-55
2023/10/03 15:49:47;;;;;;;21.77;12.27;;;;;;;;;;1035142;28;20053;-55
2023/10/03 15:50:18;;;;;;;18.55;11.45;;;;;;;;;;1035166;28;20132;-55
2023/10/03 15:50:51;;;;;;;16.30;10.95;;;;;;;;;;1035052;28;20824;-55
2023/10/03 15:51:22;;;;;;;18.08;10.80;;;;;;;;;;1035082;28;20050;-55
2023/10/03 15:51:55;;;;;;;16.60;10.40;;;;;;;;;;1035022;28;20058;-55
2023/10/03 15:52:26;;;;;;;17.83;10.63;;;;;;;;;;1035173;28;20057;-55
2023/10/03 15:52:58;;;;;;;16.95;10.90;;;;;;;;;;1035018;28;20494;-55
2023/10/03 15:53:29;;;;;;;17.17;10.15;;;;;;;;;;1035005;28;20113;-55
2023/10/03 15:54:01;;;;;;;16.45;10.27;;;;;;;;;;1035105;28;20104;-55
2023/10/03 15:54:33;;;;;;;17.45;10.50;;;;;;;;;;1035075;28;20068;-55
2023/10/03 15:55:06;;;;;;;16.27;10.07;;;;;;;;;;1035099;28;20506;-55
2023/10/03 15:55:39;;;;;;;16.27;10.65;;;;;;;;;;1035073;28;20096;-55
2023/10/03 15:56:13;;;;;;;15.60;9.77;;;;;;;;;;1035127;28;20104;-55
2023/10/03 15:56:44;;;;;;;15.55;9.68;;;;;;;;;;1034552;28;20050;-55
2023/10/03 15:57:15;;;;;;;16.95;10.05;;;;;;;;;;1034690;28;20419;-55
2023/10/03 15:57:47;;;;;;;16.88;9.95;;;;;;;;;;1033236;28;20049;-55
2023/10/03 15:58:20;;;;;;;14.82;9.63;;;;;;;;;;1035033;28;20153;-55
2023/10/03 15:58:52;;;;;;;15.57;9.82;;;;;;;;;;1035034;28;20057;-55
2023/10/03 15:59:23;;;;;;;14.13;8.75;;;;;;;;;;1035022;28;20046;-55
2023/10/03 15:59:55;;;;;;;14.52;8.98;;;;;;;;;;1035054;28;20483;-55
2023/10/03 16:00:27;;;;;;;16.67;9.65;;;;;;;;;;1034891;28;20120;-55
2023/10/03 16:00:58;;;;;;;13.60;8.75;;;;;;;;;;1035125;28;20542;-55
2023/10/03 16:01:30;;;;;;;17.20;9.70;;;;;;;;;;1035057;28;20142;-55
2023/10/03 16:02:03;;;;;;;15.02;9.85;;;;;;;;;;1035078;28;20476;-55
2023/10/03 16:02:35;;;;;;;16.50;9.65;;;;;;;;;;1035066;28;20050;-56
2023/10/03 16:03:07;;;;;;;13.75;8.82;;;;;;;;;;1035081;28;20051;-55
2023/10/03 16:03:40;;;;;;;15.27;9.70;;;;;;;;;;1034984;28;20546;-55
2023/10/03 16:04:11;;;;;;;14.60;8.73;;;;;;;;;;1035018;28;20077;-55
2023/10/03 16:04:43;;;;;;;13.65;9.15;;;;;;;;;;1035061;28;20058;-54
2023/10/03 16:05:18;;;;;;;16.23;9.18;;;;;;;;;;1035007;28;20058;-55
2023/10/03 16:05:50;;;;;;;13.95;9.32;;;;;;;;;;1035033;28;20112;-55
2023/10/03 16:06:22;;;;;;;16.65;9.80;;;;;;;;;;1035082;28;20050;-56
2023/10/03 16:06:54;;;;;;;15.95;9.35;;;;;;;;;;1035008;28;20443;-55
2023/10/03 16:07:25;;;;;;;15.98;9.10;;;;;;;;;;1034225;28;20148;-55
2023/10/03 16:07:56;;;;;;;12.90;8.85;;;;;;;;;;1035022;28;20042;-55
2023/10/03 16:08:29;;;;;;;15.27;9.63;;;;;;;;;;1035092;28;20557;-55
2023/10/03 16:09:00;;;;;;;17.02;9.57;;;;;;;;;;1034934;28;20054;-55
2023/10/03 16:09:32;;;;;;;15.07;9.15;;;;;;;;;;1034998;28;20050;-55
2023/10/03 16:10:04;;;;;;;15.30;9.60;;;;;;;;;;1035029;28;20054;-56
2023/10/03 16:10:36;;;;;;;17.83;9.57;;;;;;;;;;1035127;28;20161;-56
2023/10/03 16:11:08;;;;;;;17.15;9.70;;;;;;;;;;1035022;28;20053;-55
2023/10/03 16:11:40;;;;;;;14.75;9.52;;;;;;;;;;1034036;28;20491;-55
2023/10/03 16:12:12;;;;;;;12.95;9.20;;;;;;;;;;1034999;28;20050;-55
2023/10/03 16:12:44;;;;;;;15.95;9.13;;;;;;;;;;1034789;28;20080;-56
2023/10/03 16:13:18;;;;;;;13.02;8.70;;;;;;;;;;1034987;28;20046;-56
2023/10/03 16:13:51;;;;;;;17.45;8.55;;;;;;;;;;1035006;28;20129;-55
2023/10/03 16:14:22;;;;;;;14.07;9.18;;;;;;;;;;1034966;28;20046;-56
2023/10/03 16:14:54;;;;;;;14.88;9.60;;;;;;;;;;1035025;28;20050;-55
2023/10/03 16:15:25;;;;;;;15.23;9.30;;;;;;;;;;1034925;28;20057;-55
2023/10/03 16:15:57;;;;;;;14.25;8.95;;;;;;;;;;1035009;28;20120;-56
2023/10/03 16:16:29;;;;;;;19.15;9.32;;;;;;;;;;1034983;28;20050;-55
2023/10/03 16:17:01;;;;;;;14.82;9.35;;;;;;;;;;1035009;28;20053;-54
2023/10/03 16:17:32;;;;;;;15.40;10.25;;;;;;;;;;1034965;28;20058;-56
2023/10/03 16:18:08;;;;;;;14.38;9.60;;;;;;;;;;1034874;28;20053;-56
2023/10/03 16:18:39;;;;;;;16.98;9.55;;;;;;;;;;1034565;28;20046;-56
2023/10/03 16:19:11;;;;;;;16.48;9.63;;;;;;;;;;1035097;28;20046;-55
2023/10/03 16:19:43;;;;;;;17.48;9.88;;;;;;;;;;1034915;28;20053;-59
2023/10/03 16:20:20;;;;;;;19.25;9.70;;;;;;;;;;1034965;28;20045;-52
2023/10/03 16:20:52;;;;;;;17.42;9.75;;;;;;;;;;1035064;28;20197;-53
2023/10/03 16:21:23;;;;;;;17.95;10.18;;;;;;;;;;1034972;28;20038;-55
2023/10/03 16:21:55;;;;;;;20.52;9.80;;;;;;;;;;1034309;28;20061;-74
2023/10/03 16:22:27;;;;;;;17.10;9.57;;;;;;;;;;1034914;28;20077;-56
2023/10/03 16:22:58;;;;;;;17.35;9.38;;;;;;;;;;1034915;28;20054;-59
2023/10/03 16:23:31;;;;;;;15.30;8.80;;;;;;;;;;1035000;28;20760;-54
2023/10/03 16:24:03;;;;;;;17.63;9.15;;;;;;;;;;1034233;28;20104;-61
2023/10/03 16:24:35;;;;;;;37.35;9.35;;;;;;;;;;1034640;28;20157;-59
2023/10/03 16:25:08;;;;;;;14.23;9.05;;;;;;;;;;1034975;28;20053;-57
2023/10/03 16:25:39;;;;;;;13.65;7.90;;;;;;;;;;1035107;28;20046;-55
2023/10/03 16:26:11;;;;;;;11.55;7.55;;;;;;;;;;1034910;28;20133;-54
2023/10/03 16:26:43;;;;;;;11.45;6.78;;;;;;;;;;1034119;28;20054;-67
2023/10/03 16:27:14;;;;;;;13.90;8.07;;;;;;;;;;1034419;28;20058;-66
2023/10/03 16:27:46;;;;;;;11.40;7.22;;;;;;;;;;1034894;28;20049;-68
2023/10/03 16:28:17;;;;;;;12.90;7.65;;;;;;;;;;1034847;28;20046;-68
2023/10/03 16:28:51;;;;;;;13.55;7.85;;;;;;;;;;1034472;28;20130;-72
2023/10/03 16:29:23;;;;;;;15.55;8.07;;;;;;;;;;1032865;28;20384;-72
2023/10/03 16:29:54;;;;;;;19.20;8.32;;;;;;;;;;1034361;28;20502;-72
2023/10/03 16:30:26;;;;;;;12.70;8.10;;;;;;;;;;1034422;28;20050;-71
2023/10/03 16:30:59;;;;;;;14.07;7.85;;;;;;;;;;1034492;28;20479;-74
2023/10/03 16:31:32;;;;;;;13.52;7.43;;;;;;;;;;1034425;28;20060;-72
2023/10/03 16:32:04;;;;;;;13.77;7.70;;;;;;;;;;1033109;28;20054;-71
2023/10/03 16:32:36;;;;;;;12.13;7.60;;;;;;;;;;1034404;28;20480;-71
2023/10/03 16:33:08;;;;;;;14.38;8.10;;;;;;;;;;1034220;28;20050;-71
2023/10/03 16:33:39;;;;;;;12.05;7.47;;;;;;;;;;1034061;28;20054;-71
2023/10/03 16:34:10;;;;;;;10.07;6.97;;;;;;;;;;1030806;28;20054;-74
2023/10/03 16:34:42;;;;;;;14.63;7.60;;;;;;;;;;1033721;28;20050;-71
2023/10/03 16:35:14;;;;;;;15.70;7.07;;;;;;;;;;1034451;28;20085;-71
2023/10/03 16:35:46;;;;;;;11.90;6.80;;;;;;;;;;1034595;28;20046;-71
2023/10/03 16:36:18;;;;;;;10.23;6.43;;;;;;;;;;1032713;28;20056;-72
2023/10/03 16:36:49;;;;;;;12.15;7.38;;;;;;;;;;1031202;28;20059;-71
2023/10/03 16:37:22;;;;;;;11.18;7.30;;;;;;;;;;1034423;28;20052;-71
2023/10/03 16:37:53;;;;;;;13.23;7.38;;;;;;;;;;1034560;28;20050;-70
2023/10/03 16:38:25;;;;;;;12.15;7.38;;;;;;;;;;1034251;28;20551;-76
2023/10/03 16:38:57;;;;;;;11.13;7.13;;;;;;;;;;1031791;28;20054;-58
2023/10/03 16:39:32;;;;;;;10.88;7.15;;;;;;;;;;1031203;28;20078;-57
2023/10/03 16:40:04;;;;;;;11.68;6.97;;;;;;;;;;1027799;28;20051;-58
2023/10/03 16:40:35;;;;;;;11.85;7.05;;;;;;;;;;1027713;28;20046;-58
2023/10/03 16:41:08;;;;;;;11.32;6.63;;;;;;;;;;1027743;28;20054;-57
2023/10/03 16:41:40;;;;;;;13.25;6.63;;;;;;;;;;1029437;28;20472;-58
2023/10/03 16:42:11;;;;;;;12.45;6.68;;;;;;;;;;1031743;28;20046;-58
2023/10/03 16:42:45;;;;;;;10.63;6.43;;;;;;;;;;1031671;28;20104;-58
2023/10/03 16:43:17;;;;;;;11.48;7.25;;;;;;;;;;1029870;28;20038;-58
2023/10/03 16:43:50;;;;;;;12.40;7.82;;;;;;;;;;1031811;28;20096;-57
2023/10/03 16:44:21;;;;;;;11.30;7.00;;;;;;;;;;1031649;28;20514;-55
2023/10/03 16:44:52;;;;;;;14.25;7.13;;;;;;;;;;1031672;28;20141;-64
2023/10/03 16:45:25;;;;;;;14.93;7.60;;;;;;;;;;1031534;28;20050;-63
2023/10/03 16:46:02;;;;;;;9.57;6.65;;;;;;;;;;1031054;28;20054;-58
2023/10/03 16:46:34;;;;;;;13.10;7.25;;;;;;;;;;1030980;28;20053;-59
2023/10/03 16:47:06;;;;;;;9.82;7.05;;;;;;;;;;1027575;28;20077;-59
2023/10/03 16:47:39;;;;;;;13.27;6.93;;;;;;;;;;1030333;28;20078;-58
2023/10/03 16:48:10;;;;;;;13.43;6.68;;;;;;;;;;1028795;28;20061;-58
2023/10/03 16:48:41;;;;;;;13.32;7.10;;;;;;;;;;1033503;28;20054;-60
2023/10/03 16:49:14;;;;;;;13.60;7.30;;;;;;;;;;1030812;28;20050;-57
2023/10/03 16:49:47;;;;;;;12.25;7.00;;;;;;;;;;1031449;28;20476;-57
2023/10/03 16:50:19;;;;;;;12.70;6.70;;;;;;;;;;1032154;28;20137;-56
2023/10/03 16:50:51;;;;;;;11.80;7.18;;;;;;;;;;1030677;28;20890;-60
2023/10/03 16:51:22;;;;;;;11.85;6.70;;;;;;;;;;996855;28;30723;-55
2023/10/03 16:53:54;;;;;;;10.82;6.20;;;;;;;;;;4201347;27;20504;-52
2023/10/03 16:55:56;;;;;;;11.40;6.53;;;;;;;;;;4209158;28;20052;-55
2023/10/03 16:57:59;;;;;;;12.65;6.57;;;;;;;;;;4206286;28;20127;-53
2023/10/03 17:00:01;;;;;;;12.95;6.35;;;;;;;;;;4209318;28;20555;-54
2023/10/03 17:02:03;;;;;;;11.15;6.63;;;;;;;;;;4208954;28;20052;-53
2023/10/03 17:04:06;;;;;;;14.38;7.65;;;;;;;;;;4202698;28;20045;-54
2023/10/03 17:06:08;;;;;;;13.23;6.43;;;;;;;;;;4207778;28;20496;-55
2023/10/03 17:08:11;;;;;;;12.00;7.30;;;;;;;;;;4210289;28;20481;-54
2023/10/03 17:10:17;;;;;;;12.00;7.03;;;;;;;;;;4208412;28;20044;-54
2023/10/03 17:12:21;;;;;;;11.05;6.13;;;;;;;;;;4210142;28;20527;-55
2023/10/03 17:14:23;;;;;;;12.60;6.78;;;;;;;;;;4205349;28;20139;-53
2023/10/03 17:16:25;;;;;;;12.43;6.70;;;;;;;;;;4205163;28;20137;-53
2023/10/03 17:18:28;;;;;;;9.95;6.20;;;;;;;;;;4210297;28;20477;-53
2023/10/03 17:20:31;;;;;;;12.88;6.60;;;;;;;;;;4209087;28;20076;-53
2023/10/03 17:22:34;;;;;;;11.18;6.72;;;;;;;;;;4210319;28;20075;-55
2023/10/03 17:24:36;;;;;;;11.00;6.50;;;;;;;;;;4201350;28;20106;-54
2023/10/03 17:26:39;;;;;;;9.88;6.75;;;;;;;;;;4194695;28;20049;-53
2023/10/03 17:28:43;;;;;;;13.10;7.10;;;;;;;;;;4209446;28;20078;-53
2023/10/03 17:30:47;;;;;;;11.70;6.95;;;;;;;;;;4209385;28;20052;-53
2023/10/03 17:32:50;;;;;;;12.48;6.88;;;;;;;;;;4209951;28;20087;-53
2023/10/03 17:34:52;;;;;;;11.23;6.68;;;;;;;;;;4209948;28;20048;-54
2023/10/03 17:36:54;;;;;;;11.45;6.82;;;;;;;;;;4209693;28;20489;-53
2023/10/03 17:38:56;;;;;;;11.40;6.80;;;;;;;;;;4209061;28;20052;-54
2023/10/03 17:40:58;;;;;;;13.43;6.85;;;;;;;;;;4209783;28;20059;-57
2023/10/03 17:43:02;;;;;;;12.07;6.82;;;;;;;;;;4201827;28;20045;-54
2023/10/03 17:45:08;;;;;;;11.52;6.97;;;;;;;;;;4206094;28;20044;-53
2023/10/03 17:47:12;;;;;;;12.82;6.50;;;;;;;;;;4208089;28;20150;-55
2023/10/03 17:49:14;;;;;;;10.52;6.20;;;;;;;;;;4209811;28;20090;-55
2023/10/03 17:51:16;;;;;;;10.88;6.18;;;;;;;;;;4209800;28;20048;-57
2023/10/03 17:53:19;;;;;;;11.25;6.78;;;;;;;;;;4212104;28;20059;-59
2023/10/03 17:55:21;;;;;;;10.63;6.55;;;;;;;;;;4215509;28;20102;-58
2023/10/03 17:57:23;;;;;;;10.40;6.18;;;;;;;;;;4196940;28;20557;-59
2023/10/03 17:59:28;;;;;;;10.93;6.38;;;;;;;;;;4195502;28;20049;-61
2023/10/03 18:01:31;;;;;;;11.02;6.40;;;;;;;;;;4209035;28;20055;-61
2023/10/03 18:03:36;;;;;;;10.40;6.70;;;;;;;;;;4207838;28;20485;-61
2023/10/03 18:05:38;;;;;;;10.45;6.32;;;;;;;;;;4197779;28;20041;-61
2023/10/03 18:07:42;;;;;;;9.95;6.20;;;;;;;;;;4196534;28;20041;-60
